sensor_id;sensor_type;location;lat;lon;timestamp;pressure;altitude;pressure_sealevel;temperature;humidity
62926;BME280;55732;52.248;-0.844;2022-10-31T00:01:01;100740.55;;;11.56;92.59
62926;BME280;55732;52.248;-0.844;2022-10-31T00:03:26;100739.33;;;11.56;92.62
62926;BME280;55732;52.248;-0.844;2022-10-31T00:05:52;100736.33;;;11.56;92.64
62926;BME280;55732;52.248;-0.844;2022-10-31T00:08:18;100736.70;;;11.55;92.64
62926;BME280;55732;52.248;-0.844;2022-10-31T00:10:45;100742.88;;;11.55;92.65
62926;BME280;55732;52.248;-0.844;2022-10-31T00:13:11;100745.69;;;11.54;92.73
62926;BME280;55732;52.248;-0.844;2022-10-31T00:15:38;100745.52;;;11.54;92.73
62926;BME280;55732;52.248;-0.844;2022-10-31T00:18:04;100740.05;;;11.53;92.75
62926;BME280;55732;52.248;-0.844;2022-10-31T00:20:31;100743.75;;;11.52;92.79
62926;BME280;55732;52.248;-0.844;2022-10-31T00:23:03;100742.52;;;11.52;92.70
62926;BME280;55732;52.248;-0.844;2022-10-31T00:25:34;100738.64;;;11.52;92.81
62926;BME280;55732;52.248;-0.844;2022-10-31T00:28:00;100736.17;;;11.51;92.74
62926;BME280;55732;52.248;-0.844;2022-10-31T00:30:25;100739.16;;;11.50;92.64
62926;BME280;55732;52.248;-0.844;2022-10-31T00:32:51;100739.34;;;11.50;92.75
62926;BME280;55732;52.248;-0.844;2022-10-31T00:35:16;100740.22;;;11.50;92.61
62926;BME280;55732;52.248;-0.844;2022-10-31T00:37:41;100742.16;;;11.50;92.69
62926;BME280;55732;52.248;-0.844;2022-10-31T00:40:07;100740.23;;;11.49;92.88
62926;BME280;55732;52.248;-0.844;2022-10-31T00:42:33;100737.93;;;11.49;92.71
62926;BME280;55732;52.248;-0.844;2022-10-31T00:44:58;100741.28;;;11.49;92.87
62926;BME280;55732;52.248;-0.844;2022-10-31T00:47:24;100739.16;;;11.49;92.73
62926;BME280;55732;52.248;-0.844;2022-10-31T00:49:49;100738.64;;;11.48;92.78
62926;BME280;55732;52.248;-0.844;2022-10-31T00:52:14;100733.52;;;11.46;92.77
62926;BME280;55732;52.248;-0.844;2022-10-31T00:54:40;100733.88;;;11.46;92.83
62926;BME280;55732;52.248;-0.844;2022-10-31T00:57:05;100727.70;;;11.46;92.87
62926;BME280;55732;52.248;-0.844;2022-10-31T00:59:31;100721.54;;;11.45;92.78
62926;BME280;55732;52.248;-0.844;2022-10-31T01:01:56;100720.34;;;11.43;92.79
62926;BME280;55732;52.248;-0.844;2022-10-31T01:04:21;100724.73;;;11.43;92.93
62926;BME280;55732;52.248;-0.844;2022-10-31T01:06:47;100732.85;;;11.44;93.05
62926;BME280;55732;52.248;-0.844;2022-10-31T01:09:12;100733.91;;;11.43;93.04
62926;BME280;55732;52.248;-0.844;2022-10-31T01:11:38;100730.55;;;11.43;93.25
62926;BME280;55732;52.248;-0.844;2022-10-31T01:14:03;100730.20;;;11.43;93.34
62926;BME280;55732;52.248;-0.844;2022-10-31T01:16:28;100724.73;;;11.44;93.31
62926;BME280;55732;52.248;-0.844;2022-10-31T01:18:57;100725.05;;;11.46;93.43
62926;BME280;55732;52.248;-0.844;2022-10-31T01:21:24;100723.47;;;11.47;93.46
62926;BME280;55732;52.248;-0.844;2022-10-31T01:23:52;100721.17;;;11.48;93.49
62926;BME280;55732;52.248;-0.844;2022-10-31T01:26:23;100722.77;;;11.49;93.58
62926;BME280;55732;52.248;-0.844;2022-10-31T01:28:52;100721.35;;;11.51;93.68
62926;BME280;55732;52.248;-0.844;2022-10-31T01:31:20;100723.11;;;11.52;93.54
62926;BME280;55732;52.248;-0.844;2022-10-31T01:33:46;100726.30;;;11.54;93.54
62926;BME280;55732;52.248;-0.844;2022-10-31T01:36:35;100726.63;;;11.56;93.65
62926;BME280;55732;52.248;-0.844;2022-10-31T01:39:12;100731.02;;;11.58;93.67
62926;BME280;55732;52.248;-0.844;2022-10-31T01:41:42;100734.55;;;11.62;93.69
62926;BME280;55732;52.248;-0.844;2022-10-31T01:46:54;100740.36;;;11.66;93.67
62926;BME280;55732;52.248;-0.844;2022-10-31T01:49:43;100736.28;;;11.68;93.68
62926;BME280;55732;52.248;-0.844;2022-10-31T01:52:27;100731.16;;;11.71;93.74
62926;BME280;55732;52.248;-0.844;2022-10-31T01:55:22;100726.22;;;11.73;93.72
62926;BME280;55732;52.248;-0.844;2022-10-31T01:57:52;100727.13;;;11.75;93.76
62926;BME280;55732;52.248;-0.844;2022-10-31T02:00:21;100720.95;;;11.76;93.60
62926;BME280;55732;52.248;-0.844;2022-10-31T02:02:47;100716.19;;;11.78;93.77
62926;BME280;55732;52.248;-0.844;2022-10-31T02:05:18;100718.13;;;11.79;93.73
62926;BME280;55732;52.248;-0.844;2022-10-31T02:10:22;100711.42;;;11.80;93.66
62926;BME280;55732;52.248;-0.844;2022-10-31T02:12:51;100707.69;;;11.81;93.67
62926;BME280;55732;52.248;-0.844;2022-10-31T02:15:17;100709.98;;;11.81;93.57
62926;BME280;55732;52.248;-0.844;2022-10-31T02:17:43;100714.73;;;11.82;93.61
62926;BME280;55732;52.248;-0.844;2022-10-31T02:29:37;100709.63;;;11.82;93.49
62926;BME280;55732;52.248;-0.844;2022-10-31T02:37:01;100716.50;;;11.84;93.56
62926;BME280;55732;52.248;-0.844;2022-10-31T02:39:36;100714.91;;;11.84;93.39
62926;BME280;55732;52.248;-0.844;2022-10-31T02:42:26;100712.80;;;11.83;93.45
62926;BME280;55732;52.248;-0.844;2022-10-31T02:47:27;100711.20;;;11.82;93.43
62926;BME280;55732;52.248;-0.844;2022-10-31T02:49:57;100714.04;;;11.81;93.57
62926;BME280;55732;52.248;-0.844;2022-10-31T02:52:28;100708.05;;;11.81;93.44
62926;BME280;55732;52.248;-0.844;2022-10-31T02:54:54;100704.38;;;11.79;93.44
62926;BME280;55732;52.248;-0.844;2022-10-31T02:59:53;100706.13;;;11.78;93.53
62926;BME280;55732;52.248;-0.844;2022-10-31T03:02:42;100709.66;;;11.77;93.49
62926;BME280;55732;52.248;-0.844;2022-10-31T03:08:00;100701.70;;;11.74;93.55
62926;BME280;55732;52.248;-0.844;2022-10-31T03:10:40;100699.94;;;11.73;93.61
62926;BME280;55732;52.248;-0.844;2022-10-31T03:24:01;100703.52;;;11.63;93.60
62926;BME280;55732;52.248;-0.844;2022-10-31T03:26:27;100705.09;;;11.61;93.71
62926;BME280;55732;52.248;-0.844;2022-10-31T03:29:05;100704.04;;;11.58;93.56
62926;BME280;55732;52.248;-0.844;2022-10-31T03:32:02;100697.19;;;11.54;93.50
62926;BME280;55732;52.248;-0.844;2022-10-31T03:34:29;100692.08;;;11.51;93.58
62926;BME280;55732;52.248;-0.844;2022-10-31T03:36:57;100688.38;;;11.48;93.57
62926;BME280;55732;52.248;-0.844;2022-10-31T03:39:23;100688.73;;;11.46;93.76
62926;BME280;55732;52.248;-0.844;2022-10-31T03:42:20;100685.59;;;11.42;93.75
62926;BME280;55732;52.248;-0.844;2022-10-31T03:45:04;100686.83;;;11.38;93.65
62926;BME280;55732;52.248;-0.844;2022-10-31T03:47:33;100693.17;;;11.36;93.81
62926;BME280;55732;52.248;-0.844;2022-10-31T03:50:00;100691.41;;;11.34;93.90
62926;BME280;55732;52.248;-0.844;2022-10-31T03:55:10;100691.44;;;11.32;93.89
62926;BME280;55732;52.248;-0.844;2022-10-31T03:57:49;100687.21;;;11.31;94.01
62926;BME280;55732;52.248;-0.844;2022-10-31T04:00:18;100687.21;;;11.29;93.89
62926;BME280;55732;52.248;-0.844;2022-10-31T04:02:50;100683.69;;;11.27;93.96
62926;BME280;55732;52.248;-0.844;2022-10-31T04:05:19;100681.58;;;11.26;94.18
62926;BME280;55732;52.248;-0.844;2022-10-31T04:07:47;100682.28;;;11.26;94.14
62926;BME280;55732;52.248;-0.844;2022-10-31T04:10:15;100681.75;;;11.25;94.19
62926;BME280;55732;52.248;-0.844;2022-10-31T04:12:46;100683.16;;;11.25;94.14
62926;BME280;55732;52.248;-0.844;2022-10-31T04:15:13;100685.63;;;11.24;94.12
62926;BME280;55732;52.248;-0.844;2022-10-31T04:17:41;100684.39;;;11.23;94.39
62926;BME280;55732;52.248;-0.844;2022-10-31T04:20:10;100685.80;;;11.22;94.29
62926;BME280;55732;52.248;-0.844;2022-10-31T04:22:36;100685.27;;;11.21;94.31
62926;BME280;55732;52.248;-0.844;2022-10-31T04:25:02;100679.45;;;11.21;94.51
62926;BME280;55732;52.248;-0.844;2022-10-31T04:27:27;100681.06;;;11.20;94.53
62926;BME280;55732;52.248;-0.844;2022-10-31T04:29:53;100674.21;;;11.20;94.37
62926;BME280;55732;52.248;-0.844;2022-10-31T04:32:18;100663.27;;;11.19;94.30
62926;BME280;55732;52.248;-0.844;2022-10-31T04:34:43;100671.03;;;11.18;94.42
62926;BME280;55732;52.248;-0.844;2022-10-31T04:37:09;100677.20;;;11.17;94.51
62926;BME280;55732;52.248;-0.844;2022-10-31T04:39:34;100680.55;;;11.17;94.45
62926;BME280;55732;52.248;-0.844;2022-10-31T04:41:59;100679.48;;;11.16;94.27
62926;BME280;55732;52.248;-0.844;2022-10-31T04:44:25;100674.20;;;11.15;94.44
62926;BME280;55732;52.248;-0.844;2022-10-31T04:46:50;100672.62;;;11.14;94.24
62926;BME280;55732;52.248;-0.844;2022-10-31T04:49:16;100672.62;;;11.12;94.23
62926;BME280;55732;52.248;-0.844;2022-10-31T04:51:41;100670.31;;;11.10;94.10
62926;BME280;55732;52.248;-0.844;2022-10-31T04:54:06;100672.29;;;11.08;94.03
62926;BME280;55732;52.248;-0.844;2022-10-31T04:56:32;100671.05;;;11.07;94.12
62926;BME280;55732;52.248;-0.844;2022-10-31T04:58:57;100668.06;;;11.05;94.23
62926;BME280;55732;52.248;-0.844;2022-10-31T05:01:23;100654.66;;;11.03;94.15
62926;BME280;55732;52.248;-0.844;2022-10-31T05:03:48;100650.27;;;11.01;94.23
62926;BME280;55732;52.248;-0.844;2022-10-31T05:06:13;100652.89;;;11.00;94.19
62926;BME280;55732;52.248;-0.844;2022-10-31T05:08:39;100657.50;;;10.97;94.01
62926;BME280;55732;52.248;-0.844;2022-10-31T05:11:05;100652.77;;;10.95;94.18
62926;BME280;55732;52.248;-0.844;2022-10-31T05:13:30;100651.34;;;10.93;94.26
62926;BME280;55732;52.248;-0.844;2022-10-31T05:15:56;100652.05;;;10.92;94.56
62926;BME280;55732;52.248;-0.844;2022-10-31T05:18:22;100648.88;;;10.90;94.61
62926;BME280;55732;52.248;-0.844;2022-10-31T05:20:48;100650.28;;;10.89;94.58
62926;BME280;55732;52.248;-0.844;2022-10-31T05:23:14;100649.58;;;10.87;94.53
62926;BME280;55732;52.248;-0.844;2022-10-31T05:25:40;100646.77;;;10.84;94.37
62926;BME280;55732;52.248;-0.844;2022-10-31T05:28:06;100645.55;;;10.82;94.33
62926;BME280;55732;52.248;-0.844;2022-10-31T05:30:32;100644.48;;;10.81;94.47
62926;BME280;55732;52.248;-0.844;2022-10-31T05:32:59;100641.31;;;10.80;94.53
62926;BME280;55732;52.248;-0.844;2022-10-31T05:35:30;100641.33;;;10.79;94.50
62926;BME280;55732;52.248;-0.844;2022-10-31T05:37:56;100641.84;;;10.78;94.39
62926;BME280;55732;52.248;-0.844;2022-10-31T05:40:23;100646.08;;;10.76;94.24
62926;BME280;55732;52.248;-0.844;2022-10-31T05:42:54;100647.48;;;10.73;94.07
62926;BME280;55732;52.248;-0.844;2022-10-31T05:45:21;100642.21;;;10.71;94.04
62926;BME280;55732;52.248;-0.844;2022-10-31T05:47:55;100640.98;;;10.68;94.06
62926;BME280;55732;52.248;-0.844;2022-10-31T05:50:22;100640.63;;;10.65;93.91
62926;BME280;55732;52.248;-0.844;2022-10-31T05:52:57;100639.73;;;10.62;93.97
62926;BME280;55732;52.248;-0.844;2022-10-31T05:55:23;100640.63;;;10.62;94.18
62926;BME280;55732;52.248;-0.844;2022-10-31T05:57:49;100637.82;;;10.60;94.08
62926;BME280;55732;52.248;-0.844;2022-10-31T06:00:15;100630.42;;;10.58;94.02
62926;BME280;55732;52.248;-0.844;2022-10-31T06:02:40;100631.48;;;10.57;94.06
62926;BME280;55732;52.248;-0.844;2022-10-31T06:05:06;100627.08;;;10.56;94.14
62926;BME280;55732;52.248;-0.844;2022-10-31T06:07:33;100627.77;;;10.55;94.21
62926;BME280;55732;52.248;-0.844;2022-10-31T06:09:59;100623.55;;;10.53;93.76
62926;BME280;55732;52.248;-0.844;2022-10-31T06:12:25;100621.80;;;10.49;93.57
62926;BME280;55732;52.248;-0.844;2022-10-31T06:14:50;100617.57;;;10.45;93.38
62926;BME280;55732;52.248;-0.844;2022-10-31T06:17:16;100620.21;;;10.43;93.54
62926;BME280;55732;52.248;-0.844;2022-10-31T06:19:41;100618.09;;;10.41;93.48
62926;BME280;55732;52.248;-0.844;2022-10-31T06:22:06;100616.17;;;10.39;93.50
62926;BME280;55732;52.248;-0.844;2022-10-31T06:24:32;100614.77;;;10.36;93.42
62926;BME280;55732;52.248;-0.844;2022-10-31T06:26:57;100614.41;;;10.33;93.45
62926;BME280;55732;52.248;-0.844;2022-10-31T06:29:23;100618.45;;;10.31;93.45
62926;BME280;55732;52.248;-0.844;2022-10-31T06:31:51;100618.97;;;10.31;94.10
62926;BME280;55732;52.248;-0.844;2022-10-31T06:34:16;100614.92;;;10.31;94.39
62926;BME280;55732;52.248;-0.844;2022-10-31T06:36:42;100613.17;;;10.33;94.54
62926;BME280;55732;52.248;-0.844;2022-10-31T06:39:07;100608.95;;;10.34;94.81
62926;BME280;55732;52.248;-0.844;2022-10-31T06:41:33;100612.48;;;10.36;94.83
62926;BME280;55732;52.248;-0.844;2022-10-31T06:43:58;100609.14;;;10.38;95.14
62926;BME280;55732;52.248;-0.844;2022-10-31T06:46:24;100606.65;;;10.39;95.12
62926;BME280;55732;52.248;-0.844;2022-10-31T06:48:49;100606.11;;;10.40;95.09
62926;BME280;55732;52.248;-0.844;2022-10-31T06:51:14;100602.95;;;10.40;94.97
62926;BME280;55732;52.248;-0.844;2022-10-31T06:53:40;100601.20;;;10.40;94.75
62926;BME280;55732;52.248;-0.844;2022-10-31T06:56:05;100605.78;;;10.39;94.37
62926;BME280;55732;52.248;-0.844;2022-10-31T06:58:31;100604.73;;;10.36;94.49
62926;BME280;55732;52.248;-0.844;2022-10-31T07:00:59;100605.95;;;10.34;94.10
62926;BME280;55732;52.248;-0.844;2022-10-31T07:03:25;100603.84;;;10.31;94.06
62926;BME280;55732;52.248;-0.844;2022-10-31T07:05:51;100604.71;;;10.29;94.14
62926;BME280;55732;52.248;-0.844;2022-10-31T07:08:16;100599.78;;;10.28;94.03
62926;BME280;55732;52.248;-0.844;2022-10-31T07:10:43;100599.25;;;10.28;94.09
62926;BME280;55732;52.248;-0.844;2022-10-31T07:13:15;100595.91;;;10.29;94.07
62926;BME280;55732;52.248;-0.844;2022-10-31T07:15:42;100595.92;;;10.32;94.20
62926;BME280;55732;52.248;-0.844;2022-10-31T07:18:09;100593.11;;;10.37;94.50
62926;BME280;55732;52.248;-0.844;2022-10-31T07:20:35;100590.29;;;10.45;94.78
62926;BME280;55732;52.248;-0.844;2022-10-31T07:23:01;100597.50;;;10.55;95.05
62926;BME280;55732;52.248;-0.844;2022-10-31T07:25:26;100599.41;;;10.67;95.58
62926;BME280;55732;52.248;-0.844;2022-10-31T07:27:52;100598.52;;;10.79;95.85
62926;BME280;55732;52.248;-0.844;2022-10-31T07:30:18;100601.31;;;10.92;96.08
62926;BME280;55732;52.248;-0.844;2022-10-31T07:32:46;100597.93;;;11.05;96.05
62926;BME280;55732;52.248;-0.844;2022-10-31T07:35:16;100599.11;;;11.19;96.06
62926;BME280;55732;52.248;-0.844;2022-10-31T07:37:42;100601.18;;;11.32;96.03
62926;BME280;55732;52.248;-0.844;2022-10-31T07:40:09;100601.12;;;11.44;95.93
62926;BME280;55732;52.248;-0.844;2022-10-31T07:42:39;100607.06;;;11.57;95.72
62926;BME280;55732;52.248;-0.844;2022-10-31T07:45:08;100608.05;;;11.69;95.60
62926;BME280;55732;52.248;-0.844;2022-10-31T07:47:48;100611.17;;;11.86;95.28
62926;BME280;55732;52.248;-0.844;2022-10-31T07:50:16;100610.34;;;12.04;95.06
62926;BME280;55732;52.248;-0.844;2022-10-31T07:52:42;100607.55;;;12.23;94.71
62926;BME280;55732;52.248;-0.844;2022-10-31T07:55:09;100609.16;;;12.44;94.30
62926;BME280;55732;52.248;-0.844;2022-10-31T07:57:34;100605.30;;;12.60;93.98
62926;BME280;55732;52.248;-0.844;2022-10-31T08:00:03;100603.25;;;12.72;93.69
62926;BME280;55732;52.248;-0.844;2022-10-31T08:02:29;100608.05;;;12.87;93.26
62926;BME280;55732;52.248;-0.844;2022-10-31T08:04:54;100608.08;;;13.00;92.64
62926;BME280;55732;52.248;-0.844;2022-10-31T08:07:20;100607.65;;;13.09;92.24
62926;BME280;55732;52.248;-0.844;2022-10-31T08:09:45;100609.89;;;13.15;92.18
62926;BME280;55732;52.248;-0.844;2022-10-31T08:12:11;100611.08;;;13.21;91.73
62926;BME280;55732;52.248;-0.844;2022-10-31T08:14:36;100618.60;;;13.27;91.77
62926;BME280;55732;52.248;-0.844;2022-10-31T08:17:01;100620.85;;;13.32;91.38
62926;BME280;55732;52.248;-0.844;2022-10-31T08:19:27;100618.46;;;13.38;91.35
62926;BME280;55732;52.248;-0.844;2022-10-31T08:21:53;100608.30;;;13.45;91.08
62926;BME280;55732;52.248;-0.844;2022-10-31T08:24:21;100612.11;;;13.52;91.03
62926;BME280;55732;52.248;-0.844;2022-10-31T08:26:47;100613.59;;;13.60;90.79
62926;BME280;55732;52.248;-0.844;2022-10-31T08:29:12;100611.33;;;13.70;90.65
62926;BME280;55732;52.248;-0.844;2022-10-31T08:31:40;100610.86;;;13.79;90.55
62926;BME280;55732;52.248;-0.844;2022-10-31T08:34:06;100610.38;;;13.88;90.20
62926;BME280;55732;52.248;-0.844;2022-10-31T08:36:32;100601.36;;;13.99;89.86
62926;BME280;55732;52.248;-0.844;2022-10-31T08:38:57;100598.47;;;14.04;89.63
62926;BME280;55732;52.248;-0.844;2022-10-31T08:41:23;100598.69;;;14.00;89.47
62926;BME280;55732;52.248;-0.844;2022-10-31T08:43:48;100597.98;;;14.01;89.35
62926;BME280;55732;52.248;-0.844;2022-10-31T08:46:14;100598.27;;;14.04;89.24
62926;BME280;55732;52.248;-0.844;2022-10-31T08:48:40;100596.44;;;14.08;89.01
62926;BME280;55732;52.248;-0.844;2022-10-31T08:51:05;100594.92;;;14.15;88.96
62926;BME280;55732;52.248;-0.844;2022-10-31T08:53:31;100588.96;;;14.22;88.90
62926;BME280;55732;52.248;-0.844;2022-10-31T08:55:57;100583.48;;;14.32;88.69
62926;BME280;55732;52.248;-0.844;2022-10-31T08:58:24;100590.47;;;14.39;88.51
62926;BME280;55732;52.248;-0.844;2022-10-31T09:00:52;100588.71;;;14.50;88.33
62926;BME280;55732;52.248;-0.844;2022-10-31T09:03:21;100588.19;;;14.60;87.99
62926;BME280;55732;52.248;-0.844;2022-10-31T09:05:46;100587.41;;;14.63;87.56
62926;BME280;55732;52.248;-0.844;2022-10-31T09:08:12;100590.69;;;14.58;87.58
62926;BME280;55732;52.248;-0.844;2022-10-31T09:10:38;100591.70;;;14.52;87.58
62926;BME280;55732;52.248;-0.844;2022-10-31T09:13:07;100588.46;;;14.43;87.56
62926;BME280;55732;52.248;-0.844;2022-10-31T09:15:35;100585.21;;;14.35;87.88
62926;BME280;55732;52.248;-0.844;2022-10-31T09:18:02;100587.95;;;14.29;87.93
62926;BME280;55732;52.248;-0.844;2022-10-31T09:20:28;100581.34;;;14.33;88.02
62926;BME280;55732;52.248;-0.844;2022-10-31T09:22:59;100580.77;;;14.47;87.96
62926;BME280;55732;52.248;-0.844;2022-10-31T09:25:25;100576.61;;;14.63;87.56
62926;BME280;55732;52.248;-0.844;2022-10-31T09:27:50;100575.17;;;14.83;87.04
62926;BME280;55732;52.248;-0.844;2022-10-31T09:30:16;100568.15;;;14.98;86.60
62926;BME280;55732;52.248;-0.844;2022-10-31T09:32:41;100562.54;;;15.29;85.90
62926;BME280;55732;52.248;-0.844;2022-10-31T09:35:07;100558.95;;;15.57;85.56
62926;BME280;55732;52.248;-0.844;2022-10-31T09:37:33;100549.68;;;15.75;85.20
62926;BME280;55732;52.248;-0.844;2022-10-31T09:39:58;100547.84;;;15.93;84.30
62926;BME280;55732;52.248;-0.844;2022-10-31T09:42:31;100548.52;;;15.94;83.87
62926;BME280;55732;52.248;-0.844;2022-10-31T09:48:15;100544.64;;;16.08;82.66
62926;BME280;55732;52.248;-0.844;2022-10-31T09:50:51;100536.84;;;16.07;82.78
62926;BME280;55732;52.248;-0.844;2022-10-31T09:53:41;100530.84;;;16.27;82.71
62926;BME280;55732;52.248;-0.844;2022-10-31T09:56:11;100531.65;;;16.44;82.05
62926;BME280;55732;52.248;-0.844;2022-10-31T09:58:42;100526.56;;;16.41;81.62
62926;BME280;55732;52.248;-0.844;2022-10-31T10:01:42;100523.23;;;16.32;81.63
62926;BME280;55732;52.248;-0.844;2022-10-31T10:06:58;100522.05;;;16.03;81.73
62926;BME280;55732;52.248;-0.844;2022-10-31T10:09:27;100520.91;;;15.91;81.91
62926;BME280;55732;52.248;-0.844;2022-10-31T10:17:16;100517.29;;;15.79;81.95
62926;BME280;55732;52.248;-0.844;2022-10-31T10:28:25;100512.18;;;15.99;81.97
62926;BME280;55732;52.248;-0.844;2022-10-31T10:30:59;100507.73;;;16.06;82.03
62926;BME280;55732;52.248;-0.844;2022-10-31T10:33:55;100506.16;;;16.12;81.89
62926;BME280;55732;52.248;-0.844;2022-10-31T10:36:30;100502.84;;;16.24;81.76
62926;BME280;55732;52.248;-0.844;2022-10-31T10:39:16;100506.19;;;16.38;80.82
62926;BME280;55732;52.248;-0.844;2022-10-31T10:41:47;100506.98;;;16.49;80.33
62926;BME280;55732;52.248;-0.844;2022-10-31T10:44:32;100503.98;;;16.55;80.00
62926;BME280;55732;52.248;-0.844;2022-10-31T10:47:17;100495.87;;;16.59;79.65
62926;BME280;55732;52.248;-0.844;2022-10-31T10:50:04;100495.35;;;16.58;79.36
62926;BME280;55732;52.248;-0.844;2022-10-31T10:52:42;100497.83;;;16.59;79.38
62926;BME280;55732;52.248;-0.844;2022-10-31T11:00:30;100481.21;;;16.69;78.61
62926;BME280;55732;52.248;-0.844;2022-10-31T11:02:56;100477.27;;;16.77;78.56
62926;BME280;55732;52.248;-0.844;2022-10-31T11:05:38;100479.21;;;16.77;78.15
62926;BME280;55732;52.248;-0.844;2022-10-31T11:08:05;100473.05;;;16.69;77.62
62926;BME280;55732;52.248;-0.844;2022-10-31T11:10:31;100479.80;;;16.62;77.81
62926;BME280;55732;52.248;-0.844;2022-10-31T11:15:36;100469.30;;;16.82;77.89
62926;BME280;55732;52.248;-0.844;2022-10-31T11:18:03;100462.96;;;16.86;77.46
62926;BME280;55732;52.248;-0.844;2022-10-31T11:20:35;100460.17;;;16.84;77.35
62926;BME280;55732;52.248;-0.844;2022-10-31T11:23:04;100449.59;;;16.87;76.62
62926;BME280;55732;52.248;-0.844;2022-10-31T11:25:30;100445.98;;;16.83;76.54
62926;BME280;55732;52.248;-0.844;2022-10-31T11:28:04;100438.70;;;16.76;75.68
62926;BME280;55732;52.248;-0.844;2022-10-31T11:30:35;100439.30;;;16.74;75.54
62926;BME280;55732;52.248;-0.844;2022-10-31T11:33:16;100432.92;;;16.74;75.45
62926;BME280;55732;52.248;-0.844;2022-10-31T11:35:44;100431.55;;;16.72;75.62
62926;BME280;55732;52.248;-0.844;2022-10-31T11:38:19;100429.11;;;16.70;75.53
62926;BME280;55732;52.248;-0.844;2022-10-31T11:41:19;100422.13;;;16.65;75.72
62926;BME280;55732;52.248;-0.844;2022-10-31T11:44:11;100418.77;;;16.64;75.99
62926;BME280;55732;52.248;-0.844;2022-10-31T11:46:44;100416.02;;;16.68;75.59
62926;BME280;55732;52.248;-0.844;2022-10-31T11:49:17;100416.73;;;16.80;75.25
62926;BME280;55732;52.248;-0.844;2022-10-31T11:51:52;100411.82;;;16.84;75.41
62926;BME280;55732;52.248;-0.844;2022-10-31T11:54:23;100406.86;;;16.83;75.39
62926;BME280;55732;52.248;-0.844;2022-10-31T11:56:51;100408.40;;;16.73;74.94
62926;BME280;55732;52.248;-0.844;2022-10-31T11:59:22;100408.42;;;16.58;75.12
62926;BME280;55732;52.248;-0.844;2022-10-31T12:01:50;100405.13;;;16.49;74.67
62926;BME280;55732;52.248;-0.844;2022-10-31T12:04:16;100394.44;;;16.44;74.49
62926;BME280;55732;52.248;-0.844;2022-10-31T12:06:44;100387.86;;;16.44;74.90
62926;BME280;55732;52.248;-0.844;2022-10-31T12:17:42;100367.67;;;17.13;73.41
62926;BME280;55732;52.248;-0.844;2022-10-31T12:20:24;100362.52;;;17.24;73.37
62926;BME280;55732;52.248;-0.844;2022-10-31T12:26:08;100343.30;;;17.35;72.77
62926;BME280;55732;52.248;-0.844;2022-10-31T12:28:47;100345.05;;;17.52;72.75
62926;BME280;55732;52.248;-0.844;2022-10-31T12:34:04;100346.33;;;17.52;72.18
62926;BME280;55732;52.248;-0.844;2022-10-31T12:36:57;100338.79;;;17.32;72.47
62926;BME280;55732;52.248;-0.844;2022-10-31T12:45:13;100321.64;;;17.06;71.58
62926;BME280;55732;52.248;-0.844;2022-10-31T12:56:35;100287.94;;;16.52;71.44
62926;BME280;55732;52.248;-0.844;2022-10-31T12:59:30;100288.30;;;16.45;71.38
62926;BME280;55732;52.248;-0.844;2022-10-31T13:02:03;100289.48;;;16.42;71.82
62926;BME280;55732;52.248;-0.844;2022-10-31T13:07:40;100283.95;;;16.48;71.66
62926;BME280;55732;52.248;-0.844;2022-10-31T13:12:41;100258.14;;;16.55;71.51
62926;BME280;55732;52.248;-0.844;2022-10-31T13:15:29;100250.75;;;16.58;71.65
62926;BME280;55732;52.248;-0.844;2022-10-31T13:17:58;100240.55;;;16.61;71.18
62926;BME280;55732;52.248;-0.844;2022-10-31T13:20:30;100236.33;;;16.59;71.06
62926;BME280;55732;52.248;-0.844;2022-10-31T13:23:10;100227.52;;;16.57;71.30
62926;BME280;55732;52.248;-0.844;2022-10-31T13:25:47;100223.67;;;16.54;71.45
62926;BME280;55732;52.248;-0.844;2022-10-31T13:28:36;100226.75;;;16.47;71.51
62926;BME280;55732;52.248;-0.844;2022-10-31T13:31:04;100223.27;;;16.39;71.91
62926;BME280;55732;52.248;-0.844;2022-10-31T13:33:33;100222.41;;;16.33;71.99
62926;BME280;55732;52.248;-0.844;2022-10-31T13:46:41;100180.48;;;15.86;72.13
62926;BME280;55732;52.248;-0.844;2022-10-31T13:54:44;100165.96;;;15.84;72.50
62926;BME280;55732;52.248;-0.844;2022-10-31T13:59:53;100159.13;;;15.87;72.42
62926;BME280;55732;52.248;-0.844;2022-10-31T14:02:26;100152.84;;;15.91;72.41
62926;BME280;55732;52.248;-0.844;2022-10-31T14:04:57;100149.29;;;15.96;72.43
62926;BME280;55732;52.248;-0.844;2022-10-31T14:07:24;100143.82;;;16.01;72.34
62926;BME280;55732;52.248;-0.844;2022-10-31T14:10:33;100132.98;;;16.06;72.39
62926;BME280;55732;52.248;-0.844;2022-10-31T14:12:42;100130.58;;;16.15;72.27
62926;BME280;55732;52.248;-0.844;2022-10-31T14:18:03;100128.16;;;16.24;71.46
62926;BME280;55732;52.248;-0.844;2022-10-31T14:20:43;100118.61;;;16.23;71.62
62926;BME280;55732;52.248;-0.844;2022-10-31T14:28:56;100101.20;;;16.17;71.20
62926;BME280;55732;52.248;-0.844;2022-10-31T14:33:54;100092.69;;;16.12;71.20
62926;BME280;55732;52.248;-0.844;2022-10-31T14:36:38;100091.60;;;16.12;71.51
62926;BME280;55732;52.248;-0.844;2022-10-31T14:48:03;100070.37;;;16.05;72.33
62926;BME280;55732;52.248;-0.844;2022-10-31T14:50:53;100069.68;;;16.04;72.67
62926;BME280;55732;52.248;-0.844;2022-10-31T14:53:23;100061.19;;;16.03;72.80
62926;BME280;55732;52.248;-0.844;2022-10-31T14:55:55;100055.41;;;16.00;72.97
62926;BME280;55732;52.248;-0.844;2022-10-31T14:58:33;100050.25;;;15.95;72.93
62926;BME280;55732;52.248;-0.844;2022-10-31T15:01:01;100050.63;;;15.88;73.01
62926;BME280;55732;52.248;-0.844;2022-10-31T15:03:31;100048.69;;;15.82;73.04
62926;BME280;55732;52.248;-0.844;2022-10-31T15:06:13;100044.45;;;15.76;73.25
62926;BME280;55732;52.248;-0.844;2022-10-31T15:08:41;100043.88;;;15.71;73.31
62926;BME280;55732;52.248;-0.844;2022-10-31T15:11:22;100038.69;;;15.67;73.36
62926;BME280;55732;52.248;-0.844;2022-10-31T15:13:51;100032.40;;;15.64;73.57
62926;BME280;55732;52.248;-0.844;2022-10-31T15:16:34;100027.72;;;15.60;73.80